Time;durP1;ratioP1;P1;durP2;ratioP2;P2;SDS_P1;SDS_P2;PMS_P1;PMS_P2;Temp;Humidity;BMP_temperature;BMP_pressure;BME280_temperature;BME280_humidity;BME280_pressure;Samples;Min_cycle;Max_cycle;Signal;HPM_P1;HPM_P2
2022/04/22 00:01:50;;;;;;;;;;;;;;;;;;4953064;28;135907;-66
2022/04/22 00:04:16;;;;;;;;;;;;;;;;;;4953795;28;113613;-66
2022/04/22 00:06:42;;;;;;;;;;;;;;;;;;4952713;28;122594;-67
2022/04/22 00:09:08;;;;;;;;;;;;;;;;;;4953875;28;106666;-67
2022/04/22 00:11:35;;;;;;;;;;;;;;;;;;4953911;28;136969;-67
2022/04/22 00:14:05;;;;;;;;;;;;;;;;;;4952702;28;136393;-67
2022/04/22 00:16:31;;;;;;;;;;;;;;;;;;4952578;28;135594;-68
2022/04/22 00:18:58;;;;;;;;;;;;;;;;;;4952793;28;122014;-68
2022/04/22 00:21:24;;;;;;;;;;;;;;;;;;4951890;28;134369;-67
2022/04/22 00:23:50;;;;;;;;;;;;;;;;;;4953000;28;123728;-67
2022/04/22 00:26:17;;;;;;;;;;;;;;;;;;4952763;28;122963;-67
2022/04/22 00:28:43;;;;;;;;;;;;;;;;;;4952503;28;136499;-67
2022/04/22 00:31:09;;;;;;;;;;;;;;;;;;4952186;28;135036;-67
2022/04/22 00:33:35;;;;;;;;;;;;;;;;;;4956232;28;123282;-67
2022/04/22 00:36:02;;;;;;;;;;;;;;;;;;4952387;28;128326;-67
2022/04/22 00:38:28;;;;;;;;;;;;;;;;;;4953161;28;106122;-67
2022/04/22 00:40:55;;;;;;;;;;;;;;;;;;4952473;28;135020;-67
2022/04/22 00:43:21;;;;;;;;;;;;;;;;;;4951757;28;107068;-67
2022/04/22 00:45:48;;;;;;;;;;;;;;;;;;4952693;28;122312;-67
2022/04/22 00:48:14;;;;;;;;;;;;;;;;;;4952330;28;135534;-67
2022/04/22 00:50:40;;;;;;;;;;;;;;;;;;4952219;28;135874;-67
2022/04/22 00:53:06;;;;;;;;;;;;;;;;;;4970927;28;123226;-67
2022/04/22 00:55:33;;;;;;;;;;;;;;;;;;4952800;28;135843;-67
2022/04/22 00:57:59;;;;;;;;;;;;;;;;;;4952350;28;123083;-67
2022/04/22 01:00:25;;;;;;;;;;;;;;;;;;4951286;28;130955;-67
2022/04/22 01:02:52;;;;;;;;;;;;;;;;;;4952519;28;135622;-67
2022/04/22 01:10:49;;;;;;;;;;;;;;;;;;4970045;22;137071;-76
2022/04/22 01:13:16;;;;;;;;;;;;;;;;;;4952022;28;122031;-76
2022/04/22 01:15:42;;;;;;;;;;;;;;;;;;4955826;28;135376;-76
2022/04/22 01:18:09;;;;;;;;;;;;;;;;;;4954032;28;106367;-77
2022/04/22 01:20:35;;;;;;;;;;;;;;;;;;4952944;28;135670;-76
2022/04/22 01:23:01;;;;;;;;;;;;;;;;;;4952456;28;137180;-74
2022/04/22 01:25:28;;;;;;;;;;;;;;;;;;4952153;28;122367;-76
2022/04/22 01:27:54;;;;;;;;;;;;;;;;;;4952800;28;135503;-76
2022/04/22 01:30:20;;;;;;;;;;;;;;;;;;4952177;28;131369;-75
2022/04/22 01:32:47;;;;;;;;;;;;;;;;;;4952622;28;123055;-75
2022/04/22 01:35:13;;;;;;;;;;;;;;;;;;4952701;28;137096;-75
2022/04/22 01:37:42;;;;;;;;;;;;;;;;;;4956018;28;136240;-77
2022/04/22 01:40:08;;;;;;;;;;;;;;;;;;4953249;28;106436;-76
2022/04/22 01:42:34;;;;;;;;;;;;;;;;;;4951997;28;136968;-76
2022/04/22 01:45:01;;;;;;;;;;;;;;;;;;4953894;28;119536;-76
2022/04/22 01:47:27;;;;;;;;;;;;;;;;;;4952538;28;134964;-76
2022/04/22 01:49:53;;;;;;;;;;;;;;;;;;4952393;28;107276;-76
2022/04/22 01:52:19;;;;;;;;;;;;;;;;;;4952788;28;124216;-76
2022/04/22 01:54:46;;;;;;;;;;;;;;;;;;4952563;28;140139;-77
2022/04/22 01:57:12;;;;;;;;;;;;;;;;;;4967055;28;137793;-76
2022/04/22 01:59:38;;;;;;;;;;;;;;;;;;4956647;28;106039;-77
2022/04/22 02:02:05;;;;;;;;;;;;;;;;;;4951908;28;135768;-76
2022/04/22 02:04:31;;;;;;;;;;;;;;;;;;4952449;28;122371;-76
2022/04/22 02:06:59;;;;;;;;;;;;;;;;;;4953143;28;136522;-76
2022/04/22 02:09:26;;;;;;;;;;;;;;;;;;4960768;28;137018;-76
2022/04/22 02:11:53;;;;;;;;;;;;;;;;;;4973427;28;106140;-76
2022/04/22 02:14:19;;;;;;;;;;;;;;;;;;4960387;28;135111;-75
2022/04/22 02:16:45;;;;;;;;;;;;;;;;;;4952536;28;135758;-76
2022/04/22 02:19:11;;;;;;;;;;;;;;;;;;4949675;28;122330;-76
2022/04/22 02:21:38;;;;;;;;;;;;;;;;;;4955369;28;134676;-76
2022/04/22 02:24:04;;;;;;;;;;;;;;;;;;4952837;28;120141;-76
2022/04/22 02:28:31;;;;;;;;;;;;;;;;;;4951622;28;136753;-76
2022/04/22 02:29:17;;;;;;;;;;;;;;;;;;4951924;28;129742;-76
2022/04/22 02:31:43;;;;;;;;;;;;;;;;;;4951928;28;124206;-76
2022/04/22 02:34:10;;;;;;;;;;;;;;;;;;4954269;28;136263;-76
2022/04/22 02:36:36;;;;;;;;;;;;;;;;;;4974309;28;136106;-76
2022/04/22 02:39:02;;;;;;;;;;;;;;;;;;4955874;28;120361;-76
2022/04/22 02:46:59;;;;;;;;;;;;;;;;;;4956778;28;107350;-75
2022/04/22 02:49:26;;;;;;;;;;;;;;;;;;4954210;28;133712;-77
2022/04/22 02:51:52;;;;;;;;;;;;;;;;;;4955782;28;114439;-76
2022/04/22 02:54:19;;;;;;;;;;;;;;;;;;4955595;28;118649;-76
2022/04/22 02:56:45;;;;;;;;;;;;;;;;;;4956227;28;106338;-76
2022/04/22 02:59:11;;;;;;;;;;;;;;;;;;4954213;28;121378;-76
2022/04/22 03:01:37;;;;;;;;;;;;;;;;;;4954860;28;136922;-76
2022/04/22 03:04:04;;;;;;;;;;;;;;;;;;4957638;28;136221;-69
2022/04/22 03:06:30;;;;;;;;;;;;;;;;;;4954714;28;135871;-76
2022/04/22 03:08:56;;;;;;;;;;;;;;;;;;4954579;28;135800;-76
2022/04/22 03:11:23;;;;;;;;;;;;;;;;;;4953946;28;123143;-76
2022/04/22 03:13:49;;;;;;;;;;;;;;;;;;4954056;28;136980;-76
2022/04/22 03:16:16;;;;;;;;;;;;;;;;;;4954352;28;136191;-76
2022/04/22 03:18:42;;;;;;;;;;;;;;;;;;4954188;28;122680;-77
2022/04/22 03:21:09;;;;;;;;;;;;;;;;;;4955622;28;115774;-76
2022/04/22 03:23:38;;;;;;;;;;;;;;;;;;4973755;28;135414;-76
2022/04/22 03:26:05;;;;;;;;;;;;;;;;;;4956714;28;110709;-76
2022/04/22 03:28:31;;;;;;;;;;;;;;;;;;4952696;28;137737;-76
2022/04/22 03:30:57;;;;;;;;;;;;;;;;;;4954090;28;126443;-76
2022/04/22 03:33:24;;;;;;;;;;;;;;;;;;4954539;28;135190;-77
2022/04/22 03:35:50;;;;;;;;;;;;;;;;;;4953349;28;138144;-77
2022/04/22 03:38:16;;;;;;;;;;;;;;;;;;4954615;28;123882;-77
2022/04/22 03:40:43;;;;;;;;;;;;;;;;;;4954580;28;112818;-77
2022/04/22 03:43:09;;;;;;;;;;;;;;;;;;4954149;28;133641;-77
2022/04/22 03:45:36;;;;;;;;;;;;;;;;;;4954115;28;122715;-76
2022/04/22 03:48:03;;;;;;;;;;;;;;;;;;4958598;28;121765;-76
2022/04/22 03:50:29;;;;;;;;;;;;;;;;;;4954309;28;124111;-77
2022/04/22 03:52:55;;;;;;;;;;;;;;;;;;4953535;28;136435;-76
2022/04/22 03:55:22;;;;;;;;;;;;;;;;;;4953775;28;130324;-76
2022/04/22 04:00:33;;;;;;;;;;;;;;;;;;4955188;28;117934;-77
2022/04/22 04:03:01;;;;;;;;;;;;;;;;;;4953518;28;135419;-76
2022/04/22 04:05:27;;;;;;;;;;;;;;;;;;4953963;28;122020;-76
2022/04/22 04:07:54;;;;;;;;;;;;;;;;;;4953884;28;137294;-76
2022/04/22 04:16:00;;;;;;;;;;;;;;;;;;4953052;28;135598;-76
2022/04/22 04:18:26;;;;;;;;;;;;;;;;;;4954767;28;118998;-75
2022/04/22 04:23:38;;;;;;;;;;;;;;;;;;4954826;28;136072;-76
2022/04/22 04:26:06;;;;;;;;;;;;;;;;;;4955006;28;122669;-77
2022/04/22 04:28:33;;;;;;;;;;;;;;;;;;4955078;28;135232;-76
2022/04/22 04:30:59;;;;;;;;;;;;;;;;;;4955403;28;106189;-76
2022/04/22 04:33:26;;;;;;;;;;;;;;;;;;4958708;28;121782;-76
2022/04/22 04:35:52;;;;;;;;;;;;;;;;;;4954256;28;135791;-77
2022/04/22 04:38:20;;;;;;;;;;;;;;;;;;4953537;28;122901;-76
2022/04/22 04:40:46;;;;;;;;;;;;;;;;;;4953934;28;128920;-76
2022/04/22 04:43:12;;;;;;;;;;;;;;;;;;4952066;28;135538;-76
2022/04/22 04:45:39;;;;;;;;;;;;;;;;;;4953598;28;124291;-77
2022/04/22 04:48:05;;;;;;;;;;;;;;;;;;4953475;28;136990;-76
2022/04/22 04:50:31;;;;;;;;;;;;;;;;;;4952550;28;137059;-76
2022/04/22 04:52:57;;;;;;;;;;;;;;;;;;4953917;28;123170;-77
2022/04/22 04:55:24;;;;;;;;;;;;;;;;;;4956821;28;121473;-76
2022/04/22 04:57:50;;;;;;;;;;;;;;;;;;4952932;28;119403;-76
2022/04/22 05:00:17;;;;;;;;;;;;;;;;;;4954373;28;106044;-76
2022/04/22 05:02:43;;;;;;;;;;;;;;;;;;4952973;28;136439;-76
2022/04/22 05:05:11;;;;;;;;;;;;;;;;;;4953101;28;123151;-76
2022/04/22 05:07:37;;;;;;;;;;;;;;;;;;4952255;28;133109;-77
2022/04/22 05:10:03;;;;;;;;;;;;;;;;;;4953328;28;130269;-77
2022/04/22 05:12:31;;;;;;;;;;;;;;;;;;4953119;28;106713;-76
2022/04/22 05:14:58;;;;;;;;;;;;;;;;;;4956651;28;134234;-77
2022/04/22 05:17:24;;;;;;;;;;;;;;;;;;4952324;28;124284;-76
2022/04/22 05:19:50;;;;;;;;;;;;;;;;;;4952858;28;134349;-77
2022/04/22 05:22:17;;;;;;;;;;;;;;;;;;4952894;28;107155;-76
2022/04/22 05:24:43;;;;;;;;;;;;;;;;;;4953335;28;123445;-77
2022/04/22 05:27:09;;;;;;;;;;;;;;;;;;4951914;28;136099;-77
2022/04/22 05:32:39;;;;;;;;;;;;;;;;;;4951768;28;122244;-68
2022/04/22 05:35:05;;;;;;;;;;;;;;;;;;4952882;28;135197;-77
2022/04/22 05:37:32;;;;;;;;;;;;;;;;;;4956406;28;117138;-77
2022/04/22 05:39:58;;;;;;;;;;;;;;;;;;4953499;28;136730;-75
2022/04/22 05:42:24;;;;;;;;;;;;;;;;;;4951484;28;131143;-77
2022/04/22 05:44:51;;;;;;;;;;;;;;;;;;4952718;28;123879;-77
2022/04/22 05:47:17;;;;;;;;;;;;;;;;;;4951939;28;106823;-77
2022/04/22 05:49:43;;;;;;;;;;;;;;;;;;4952259;28;134455;-77
2022/04/22 05:52:09;;;;;;;;;;;;;;;;;;4953022;28;122537;-76
2022/04/22 05:54:36;;;;;;;;;;;;;;;;;;4952224;28;138401;-77
2022/04/22 05:57:03;;;;;;;;;;;;;;;;;;4951101;28;136280;-76
2022/04/22 05:59:29;;;;;;;;;;;;;;;;;;4956225;28;125498;-73
2022/04/22 06:01:56;;;;;;;;;;;;;;;;;;4952450;28;124035;-75
2022/04/22 06:04:22;;;;;;;;;;;;;;;;;;4967642;28;121621;-75
2022/04/22 06:06:48;;;;;;;;;;;;;;;;;;4952068;28;135663;-75
2022/04/22 06:11:59;;;;;;;;;;;;;;;;;;4955159;28;123018;-75
2022/04/22 06:14:26;;;;;;;;;;;;;;;;;;4956176;28;135133;-75
2022/04/22 06:16:52;;;;;;;;;;;;;;;;;;4954992;28;136948;-75
2022/04/22 06:19:18;;;;;;;;;;;;;;;;;;4955456;28;123435;-76
2022/04/22 06:21:45;;;;;;;;;;;;;;;;;;4957720;28;136867;-76
2022/04/22 06:24:11;;;;;;;;;;;;;;;;;;4955687;28;116839;-75
2022/04/22 06:26:38;;;;;;;;;;;;;;;;;;4954468;28;135875;-75
2022/04/22 06:29:04;;;;;;;;;;;;;;;;;;4954617;28;137061;-75
2022/04/22 06:31:30;;;;;;;;;;;;;;;;;;4955369;28;112729;-75
2022/04/22 06:33:57;;;;;;;;;;;;;;;;;;4955750;28;135209;-75
2022/04/22 06:36:23;;;;;;;;;;;;;;;;;;4954479;28;137239;-75
2022/04/22 06:38:50;;;;;;;;;;;;;;;;;;4955522;28;122262;-76
2022/04/22 06:46:47;;;;;;;;;;;;;;;;;;4954173;28;137523;-75
2022/04/22 06:49:13;;;;;;;;;;;;;;;;;;4954872;28;136756;-76
2022/04/22 06:51:40;;;;;;;;;;;;;;;;;;4955094;28;121991;-76
2022/04/22 06:54:06;;;;;;;;;;;;;;;;;;4955329;28;136528;-75
2022/04/22 06:56:34;;;;;;;;;;;;;;;;;;4954589;28;135594;-76
2022/04/22 06:59:00;;;;;;;;;;;;;;;;;;4955231;28;123227;-75
2022/04/22 07:01:27;;;;;;;;;;;;;;;;;;4954855;28;136580;-75
2022/04/22 07:04:07;;;;;;;;;;;;;;;;;;4954313;28;137059;-75
2022/04/22 07:06:33;;;;;;;;;;;;;;;;;;4959420;28;106593;-75
2022/04/22 07:09:00;;;;;;;;;;;;;;;;;;4955239;28;134304;-75
2022/04/22 07:11:26;;;;;;;;;;;;;;;;;;4953139;28;123173;-74
2022/04/22 07:13:52;;;;;;;;;;;;;;;;;;4954874;28;135586;-75
2022/04/22 07:16:19;;;;;;;;;;;;;;;;;;4954270;28;137071;-75
2022/04/22 07:18:45;;;;;;;;;;;;;;;;;;4954101;28;121459;-75
2022/04/22 07:21:11;;;;;;;;;;;;;;;;;;4954353;28;136312;-76
2022/04/22 07:23:38;;;;;;;;;;;;;;;;;;4953860;28;137195;-75
2022/04/22 07:26:04;;;;;;;;;;;;;;;;;;4957772;28;123076;-68
2022/04/22 07:28:30;;;;;;;;;;;;;;;;;;4954230;28;134585;-75
2022/04/22 07:30:56;;;;;;;;;;;;;;;;;;4954381;28;122306;-71
2022/04/22 07:33:25;;;;;;;;;;;;;;;;;;4954239;28;136523;-75
2022/04/22 07:35:52;;;;;;;;;;;;;;;;;;4952595;28;137562;-75
2022/04/22 07:38:18;;;;;;;;;;;;;;;;;;4954792;28;114106;-75
2022/04/22 07:40:48;;;;;;;;;;;;;;;;;;4954281;28;123130;-75
2022/04/22 07:48:44;;;;;;;;;;;;;;;;;;4957301;28;136147;-73
2022/04/22 07:51:11;;;;;;;;;;;;;;;;;;4969051;28;123751;-73
2022/04/22 07:53:37;;;;;;;;;;;;;;;;;;4954282;28;135316;-73
2022/04/22 07:56:03;;;;;;;;;;;;;;;;;;4953996;28;137852;-73
2022/04/22 07:58:31;;;;;;;;;;;;;;;;;;4953547;28;106861;-74
2022/04/22 08:00:57;;;;;;;;;;;;;;;;;;4953081;28;137136;-73
2022/04/22 08:03:23;;;;;;;;;;;;;;;;;;4952947;28;136281;-74
2022/04/22 08:05:50;;;;;;;;;;;;;;;;;;4954110;28;120665;-74
2022/04/22 08:08:16;;;;;;;;;;;;;;;;;;4953260;28;133808;-73
2022/04/22 08:10:44;;;;;;;;;;;;;;;;;;4957260;28;111743;-73
2022/04/22 08:13:11;;;;;;;;;;;;;;;;;;4952555;28;136455;-73
2022/04/22 08:15:37;;;;;;;;;;;;;;;;;;4953050;28;135596;-74
2022/04/22 08:18:03;;;;;;;;;;;;;;;;;;4954145;28;122445;-73
2022/04/22 08:20:31;;;;;;;;;;;;;;;;;;4953470;28;126356;-73
2022/04/22 08:22:58;;;;;;;;;;;;;;;;;;4952923;28;135514;-73
2022/04/22 08:25:24;;;;;;;;;;;;;;;;;;4952472;28;124300;-72
2022/04/22 08:27:51;;;;;;;;;;;;;;;;;;4953444;28;106588;-73
2022/04/22 08:30:17;;;;;;;;;;;;;;;;;;4952684;28;136637;-73
2022/04/22 08:32:43;;;;;;;;;;;;;;;;;;4955825;28;112907;-73
2022/04/22 08:35:10;;;;;;;;;;;;;;;;;;4953177;28;135582;-74
2022/04/22 08:37:42;;;;;;;;;;;;;;;;;;4953138;28;115292;-73
2022/04/22 08:40:08;;;;;;;;;;;;;;;;;;4953564;28;134692;-73
2022/04/22 08:42:34;;;;;;;;;;;;;;;;;;4951910;28;128797;-74
2022/04/22 08:45:02;;;;;;;;;;;;;;;;;;4953759;28;122484;-74
2022/04/22 08:50:16;;;;;;;;;;;;;;;;;;4951647;28;136953;-74
2022/04/22 08:52:42;;;;;;;;;;;;;;;;;;4952496;28;125023;-74
2022/04/22 08:55:08;;;;;;;;;;;;;;;;;;4956952;28;122738;-74
2022/04/22 08:57:35;;;;;;;;;;;;;;;;;;4951897;28;124001;-74
2022/04/22 09:00:01;;;;;;;;;;;;;;;;;;4952734;28;136526;-74
2022/04/22 09:02:28;;;;;;;;;;;;;;;;;;4952481;28;135601;-73
2022/04/22 09:04:55;;;;;;;;;;;;;;;;;;4952820;28;117147;-74
2022/04/22 09:07:22;;;;;;;;;;;;;;;;;;4952715;28;136744;-72
2022/04/22 09:09:51;;;;;;;;;;;;;;;;;;4952626;28;137862;-73
2022/04/22 09:12:17;;;;;;;;;;;;;;;;;;4951952;28;122062;-74
2022/04/22 09:14:47;;;;;;;;;;;;;;;;;;4952468;28;135219;-73
2022/04/22 09:17:14;;;;;;;;;;;;;;;;;;4955958;28;105870;-74
2022/04/22 09:19:40;;;;;;;;;;;;;;;;;;4952455;28;135319;-74
2022/04/22 09:22:07;;;;;;;;;;;;;;;;;;4952174;28;136857;-74
2022/04/22 09:24:33;;;;;;;;;;;;;;;;;;4953272;28;109458;-73
2022/04/22 09:27:00;;;;;;;;;;;;;;;;;;4951872;28;137693;-74
2022/04/22 09:29:26;;;;;;;;;;;;;;;;;;4951920;28;135777;-73
2022/04/22 09:31:53;;;;;;;;;;;;;;;;;;4953361;28;106756;-73
2022/04/22 09:34:19;;;;;;;;;;;;;;;;;;4952101;28;136643;-74
2022/04/22 09:45:00;;;;;;;;;;;;;;;;;;4955758;28;123500;-73
2022/04/22 09:47:27;;;;;;;;;;;;;;;;;;4955597;28;135891;-72
2022/04/22 09:49:54;;;;;;;;;;;;;;;;;;4954687;28;135802;-72
2022/04/22 09:52:20;;;;;;;;;;;;;;;;;;4956037;28;122647;-72
2022/04/22 09:54:46;;;;;;;;;;;;;;;;;;4955764;28;135274;-72
2022/04/22 09:57:31;;;;;;;;;;;;;;;;;;4955308;28;137635;-72
2022/04/22 09:59:57;;;;;;;;;;;;;;;;;;4959218;28;123254;-69
2022/04/22 10:02:25;;;;;;;;;;;;;;;;;;4954878;28;136459;-72
2022/04/22 10:04:51;;;;;;;;;;;;;;;;;;4954992;28;123854;-73
2022/04/22 10:07:18;;;;;;;;;;;;;;;;;;4955531;28;129241;-72
2022/04/22 10:09:48;;;;;;;;;;;;;;;;;;4955117;28;138210;-73
2022/04/22 10:12:14;;;;;;;;;;;;;;;;;;4954518;28;122038;-72
2022/04/22 10:14:40;;;;;;;;;;;;;;;;;;4955566;28;135942;-72
2022/04/22 10:17:06;;;;;;;;;;;;;;;;;;4954621;28;135811;-72
2022/04/22 10:19:33;;;;;;;;;;;;;;;;;;4955519;28;124903;-72
2022/04/22 10:22:00;;;;;;;;;;;;;;;;;;4959011;28;136271;-72
2022/04/22 10:24:26;;;;;;;;;;;;;;;;;;4959064;28;111134;-74
2022/04/22 10:26:53;;;;;;;;;;;;;;;;;;4955417;28;136623;-74
2022/04/22 10:29:19;;;;;;;;;;;;;;;;;;4952870;28;137692;-74
2022/04/22 10:31:45;;;;;;;;;;;;;;;;;;4954385;28;124758;-74
2022/04/22 10:34:11;;;;;;;;;;;;;;;;;;4954790;28;136362;-73
2022/04/22 10:36:40;;;;;;;;;;;;;;;;;;4954237;28;122622;-71
2022/04/22 10:39:06;;;;;;;;;;;;;;;;;;4954377;28;123923;-70
2022/04/22 10:41:33;;;;;;;;;;;;;;;;;;4954223;28;127269;-74
2022/04/22 10:49:29;;;;;;;;;;;;;;;;;;4954732;28;129680;-73
2022/04/22 10:51:55;;;;;;;;;;;;;;;;;;4955024;28;116530;-73
2022/04/22 10:54:22;;;;;;;;;;;;;;;;;;4952293;28;135423;-73
2022/04/22 10:56:49;;;;;;;;;;;;;;;;;;4953709;28;134383;-73
2022/04/22 10:59:16;;;;;;;;;;;;;;;;;;4939162;28;121995;-73
2022/04/22 11:01:46;;;;;;;;;;;;;;;;;;4955357;28;106792;-70
2022/04/22 11:04:12;;;;;;;;;;;;;;;;;;4954471;28;136046;-71
2022/04/22 11:06:38;;;;;;;;;;;;;;;;;;4971986;28;121556;-71
2022/04/22 11:09:05;;;;;;;;;;;;;;;;;;4953453;28;137094;-71
2022/04/22 11:11:31;;;;;;;;;;;;;;;;;;4953733;28;119855;-71
2022/04/22 11:13:57;;;;;;;;;;;;;;;;;;4954101;28;136605;-72
2022/04/22 11:16:30;;;;;;;;;;;;;;;;;;4954018;28;132010;-71
2022/04/22 11:18:57;;;;;;;;;;;;;;;;;;4954462;28;107629;-71
2022/04/22 11:21:24;;;;;;;;;;;;;;;;;;4953835;28;135736;-72
2022/04/22 11:23:51;;;;;;;;;;;;;;;;;;4954723;28;107358;-71
2022/04/22 11:26:17;;;;;;;;;;;;;;;;;;4957067;28;122108;-71
2022/04/22 11:28:44;;;;;;;;;;;;;;;;;;4953612;28;135707;-71
2022/04/22 11:31:11;;;;;;;;;;;;;;;;;;4954708;28;122421;-71
2022/04/22 11:33:37;;;;;;;;;;;;;;;;;;4954329;28;136271;-71
2022/04/22 11:36:06;;;;;;;;;;;;;;;;;;4953263;28;137410;-71
2022/04/22 11:38:32;;;;;;;;;;;;;;;;;;4954912;28;121927;-73
2022/04/22 11:40:59;;;;;;;;;;;;;;;;;;4954501;28;108092;-72
2022/04/22 11:43:25;;;;;;;;;;;;;;;;;;4952464;28;128783;-72
2022/04/22 11:45:52;;;;;;;;;;;;;;;;;;4954852;28;117258;-73
2022/04/22 11:48:18;;;;;;;;;;;;;;;;;;4971890;28;136810;-72
2022/04/22 11:50:45;;;;;;;;;;;;;;;;;;4954085;28;106269;-72
2022/04/22 11:53:11;;;;;;;;;;;;;;;;;;4953450;28;136523;-72
2022/04/22 11:55:37;;;;;;;;;;;;;;;;;;4968158;28;136758;-71
2022/04/22 11:58:03;;;;;;;;;;;;;;;;;;4969131;28;123170;-71
2022/04/22 12:06:00;;;;;;;;;;;;;;;;;;4951683;28;122689;-71
2022/04/22 12:08:26;;;;;;;;;;;;;;;;;;4952492;28;132845;-71
2022/04/22 12:10:52;;;;;;;;;;;;;;;;;;4955592;28;138077;-72
2022/04/22 12:13:18;;;;;;;;;;;;;;;;;;4953693;28;135763;-71
2022/04/22 12:15:46;;;;;;;;;;;;;;;;;;4953542;28;107313;-71
2022/04/22 12:18:30;;;;;;;;;;;;;;;;;;4968776;28;122364;-71
2022/04/22 12:20:56;;;;;;;;;;;;;;;;;;4952974;28;135301;-72
2022/04/22 12:23:23;;;;;;;;;;;;;;;;;;4952867;28;135535;-72
2022/04/22 12:25:49;;;;;;;;;;;;;;;;;;4952984;28;123344;-72
2022/04/22 12:28:16;;;;;;;;;;;;;;;;;;4952381;28;136916;-72
2022/04/22 12:30:43;;;;;;;;;;;;;;;;;;4952056;28;138237;-72
2022/04/22 12:33:09;;;;;;;;;;;;;;;;;;4955932;28;123193;-73
2022/04/22 12:35:38;;;;;;;;;;;;;;;;;;4953887;28;106551;-72
2022/04/22 12:38:05;;;;;;;;;;;;;;;;;;4952599;28;123332;-72
2022/04/22 12:40:32;;;;;;;;;;;;;;;;;;4953419;28;136690;-71
2022/04/22 12:42:58;;;;;;;;;;;;;;;;;;4951740;28;137183;-72
2022/04/22 12:53:44;;;;;;;;;;;;;;;;;;4940223;28;120839;-72
2022/04/22 12:56:10;;;;;;;;;;;;;;;;;;4955598;28;135422;-72
2022/04/22 12:58:37;;;;;;;;;;;;;;;;;;4951650;28;123231;-71
2022/04/22 13:01:06;;;;;;;;;;;;;;;;;;4953826;28;136344;-72
2022/04/22 13:03:32;;;;;;;;;;;;;;;;;;4952508;28;137236;-71
2022/04/22 13:05:58;;;;;;;;;;;;;;;;;;4952257;28;124269;-72
2022/04/22 13:08:25;;;;;;;;;;;;;;;;;;4952645;28;131740;-72
2022/04/22 13:10:51;;;;;;;;;;;;;;;;;;4950958;28;137248;-72
2022/04/22 13:13:17;;;;;;;;;;;;;;;;;;4953162;28;123009;-72
2022/04/22 13:15:44;;;;;;;;;;;;;;;;;;4953525;28;132841;-72
2022/04/22 13:18:10;;;;;;;;;;;;;;;;;;4955263;28;116112;-71
2022/04/22 13:20:36;;;;;;;;;;;;;;;;;;4953538;28;114953;-72
2022/04/22 13:23:02;;;;;;;;;;;;;;;;;;4951252;28;137149;-72
2022/04/22 13:25:29;;;;;;;;;;;;;;;;;;4952178;28;121987;-72
2022/04/22 13:27:55;;;;;;;;;;;;;;;;;;4953387;28;114283;-71
2022/04/22 13:30:21;;;;;;;;;;;;;;;;;;4951414;28;135567;-71
2022/04/22 13:32:48;;;;;;;;;;;;;;;;;;4953207;28;121596;-72
2022/04/22 13:35:14;;;;;;;;;;;;;;;;;;4949845;28;135133;-72
2022/04/22 13:37:40;;;;;;;;;;;;;;;;;;4954744;28;137826;-72
2022/04/22 13:40:07;;;;;;;;;;;;;;;;;;4953300;28;119715;-72
2022/04/22 13:42:33;;;;;;;;;;;;;;;;;;4951649;28;129170;-72
2022/04/22 13:53:14;;;;;;;;;;;;;;;;;;4951895;28;123360;-72
2022/04/22 13:55:41;;;;;;;;;;;;;;;;;;4951206;28;137249;-72
2022/04/22 13:58:07;;;;;;;;;;;;;;;;;;4951805;28;135726;-72
2022/04/22 14:00:34;;;;;;;;;;;;;;;;;;4956509;28;116417;-69
2022/04/22 14:03:00;;;;;;;;;;;;;;;;;;4951134;28;122386;-72
2022/04/22 14:05:26;;;;;;;;;;;;;;;;;;4951452;28;121956;-72
2022/04/22 14:07:53;;;;;;;;;;;;;;;;;;4952405;28;136638;-72
2022/04/22 14:10:19;;;;;;;;;;;;;;;;;;4965782;28;137406;-70
2022/04/22 14:12:46;;;;;;;;;;;;;;;;;;4951665;28;123837;-73
2022/04/22 14:15:13;;;;;;;;;;;;;;;;;;4952951;28;116553;-72
2022/04/22 14:17:43;;;;;;;;;;;;;;;;;;4951598;28;134881;-72
2022/04/22 14:20:10;;;;;;;;;;;;;;;;;;4952146;28;122262;-72
2022/04/22 14:22:36;;;;;;;;;;;;;;;;;;4955193;28;123982;-72
2022/04/22 14:25:02;;;;;;;;;;;;;;;;;;4952410;28;123245;-71
2022/04/22 14:27:28;;;;;;;;;;;;;;;;;;4950595;28;138938;-73
2022/04/22 14:29:55;;;;;;;;;;;;;;;;;;4953888;28;116513;-72
2022/04/22 14:32:21;;;;;;;;;;;;;;;;;;4954742;28;121109;-72
2022/04/22 14:34:48;;;;;;;;;;;;;;;;;;4955074;28;136706;-72
2022/04/22 14:37:14;;;;;;;;;;;;;;;;;;4954175;28;136440;-72
2022/04/22 14:39:41;;;;;;;;;;;;;;;;;;4955605;28;106378;-71
2022/04/22 14:42:08;;;;;;;;;;;;;;;;;;4954474;28;135819;-72
2022/04/22 14:44:35;;;;;;;;;;;;;;;;;;4958094;28;108528;-72
2022/04/22 14:47:02;;;;;;;;;;;;;;;;;;4955665;28;137264;-69
2022/04/22 14:49:28;;;;;;;;;;;;;;;;;;4953608;28;137198;-71
2022/04/22 14:51:56;;;;;;;;;;;;;;;;;;4954914;28;123180;-73
2022/04/22 14:54:23;;;;;;;;;;;;;;;;;;4954776;28;136653;-73
2022/04/22 14:56:49;;;;;;;;;;;;;;;;;;4954580;28;123126;-72
2022/04/22 14:59:17;;;;;;;;;;;;;;;;;;4954455;28;123155;-72
2022/04/22 15:01:44;;;;;;;;;;;;;;;;;;4953719;28;136002;-72
2022/04/22 15:04:10;;;;;;;;;;;;;;;;;;4954139;28;137660;-73
2022/04/22 15:06:37;;;;;;;;;;;;;;;;;;4957981;28;122681;-72
2022/04/22 15:09:04;;;;;;;;;;;;;;;;;;4954555;28;107361;-73
2022/04/22 15:11:35;;;;;;;;;;;;;;;;;;4953356;28;123296;-71
2022/04/22 15:14:03;;;;;;;;;;;;;;;;;;4954573;28;137326;-73
2022/04/22 15:16:30;;;;;;;;;;;;;;;;;;4970051;28;114531;-73
2022/04/22 15:24:26;;;;;;;;;;;;;;;;;;4954686;28;107365;-72
2022/04/22 15:26:57;;;;;;;;;;;;;;;;;;4952960;28;123120;-72
2022/04/22 15:29:23;;;;;;;;;;;;;;;;;;4956382;28;134658;-73
2022/04/22 15:31:54;;;;;;;;;;;;;;;;;;4954458;28;126458;-72
2022/04/22 15:34:20;;;;;;;;;;;;;;;;;;4954554;28;135270;-72
2022/04/22 15:36:46;;;;;;;;;;;;;;;;;;4953281;28;135845;-72
2022/04/22 15:39:13;;;;;;;;;;;;;;;;;;4954260;28;123322;-73
2022/04/22 15:41:39;;;;;;;;;;;;;;;;;;4953523;28;135345;-73
2022/04/22 15:44:05;;;;;;;;;;;;;;;;;;4952831;28;135275;-73
2022/04/22 15:46:32;;;;;;;;;;;;;;;;;;4954818;28;118482;-72
2022/04/22 15:48:58;;;;;;;;;;;;;;;;;;4956680;28;136571;-72
2022/04/22 15:51:24;;;;;;;;;;;;;;;;;;4953101;28;123195;-73
2022/04/22 15:53:51;;;;;;;;;;;;;;;;;;4954122;28;136565;-73
2022/04/22 15:56:17;;;;;;;;;;;;;;;;;;4967084;28;137899;-73
2022/04/22 15:58:45;;;;;;;;;;;;;;;;;;4954511;28;105803;-73
2022/04/22 16:01:11;;;;;;;;;;;;;;;;;;4953164;28;136099;-72
2022/04/22 16:03:38;;;;;;;;;;;;;;;;;;4953362;28;138041;-73
2022/04/22 16:06:04;;;;;;;;;;;;;;;;;;4954314;28;106849;-67
2022/04/22 16:08:30;;;;;;;;;;;;;;;;;;4953913;28;135381;-72
2022/04/22 16:15:16;;;;;;;;;;;;;;;;;;4955314;28;138173;-71
2022/04/22 16:16:28;;;;;;;;;;;;;;;;;;4952135;28;136254;-72
2022/04/22 16:18:54;;;;;;;;;;;;;;;;;;4954302;28;108828;-73
2022/04/22 16:21:21;;;;;;;;;;;;;;;;;;4952870;28;133595;-68
2022/04/22 16:23:48;;;;;;;;;;;;;;;;;;4953081;28;133293;-72
2022/04/22 16:26:14;;;;;;;;;;;;;;;;;;4952745;28;122710;-73
2022/04/22 16:28:41;;;;;;;;;;;;;;;;;;4952887;28;135319;-73
2022/04/22 16:31:07;;;;;;;;;;;;;;;;;;4951177;28;136208;-72
2022/04/22 16:33:33;;;;;;;;;;;;;;;;;;4959005;28;106812;-73
2022/04/22 16:36:00;;;;;;;;;;;;;;;;;;4952292;28;135964;-73
2022/04/22 16:38:26;;;;;;;;;;;;;;;;;;4952757;28;123155;-68
2022/04/22 16:40:53;;;;;;;;;;;;;;;;;;4952165;28;121772;-72
2022/04/22 16:43:19;;;;;;;;;;;;;;;;;;4952050;28;136797;-73
2022/04/22 16:45:45;;;;;;;;;;;;;;;;;;4952585;28;122993;-72
2022/04/22 16:48:12;;;;;;;;;;;;;;;;;;4952517;28;136646;-73
2022/04/22 16:50:38;;;;;;;;;;;;;;;;;;4952648;28;135703;-73
2022/04/22 16:53:07;;;;;;;;;;;;;;;;;;4952977;28;106399;-72
2022/04/22 16:55:34;;;;;;;;;;;;;;;;;;4955797;28;135254;-68
2022/04/22 16:58:00;;;;;;;;;;;;;;;;;;4953520;28;117515;-72
2022/04/22 17:00:27;;;;;;;;;;;;;;;;;;4952330;28;136063;-72
2022/04/22 17:02:53;;;;;;;;;;;;;;;;;;4952678;28;135948;-72
2022/04/22 17:05:19;;;;;;;;;;;;;;;;;;4952761;28;106834;-73
2022/04/22 17:07:46;;;;;;;;;;;;;;;;;;4953449;28;118978;-74
2022/04/22 17:10:12;;;;;;;;;;;;;;;;;;4950655;28;135570;-73
2022/04/22 17:12:39;;;;;;;;;;;;;;;;;;4953990;28;107380;-73
2022/04/22 17:23:21;;;;;;;;;;;;;;;;;;4952112;28;135821;-73
2022/04/22 17:25:47;;;;;;;;;;;;;;;;;;4951273;28;123120;-73
2022/04/22 17:28:13;;;;;;;;;;;;;;;;;;4952145;28;134538;-73
2022/04/22 17:30:40;;;;;;;;;;;;;;;;;;4951371;28;134294;-73
2022/04/22 17:33:06;;;;;;;;;;;;;;;;;;4951814;28;124910;-73
2022/04/22 17:35:32;;;;;;;;;;;;;;;;;;4953047;28;137322;-73
2022/04/22 17:37:59;;;;;;;;;;;;;;;;;;4953361;28;107664;-73
2022/04/22 17:40:25;;;;;;;;;;;;;;;;;;4954706;28;123854;-73
2022/04/22 17:42:51;;;;;;;;;;;;;;;;;;4952011;28;136827;-73
2022/04/22 17:45:18;;;;;;;;;;;;;;;;;;4950920;28;122122;-73
2022/04/22 17:47:44;;;;;;;;;;;;;;;;;;4952996;28;134906;-73
2022/04/22 17:50:12;;;;;;;;;;;;;;;;;;4953391;28;106881;-72
2022/04/22 17:52:38;;;;;;;;;;;;;;;;;;4967565;28;123523;-73
2022/04/22 17:55:05;;;;;;;;;;;;;;;;;;4951247;28;129946;-73
2022/04/22 17:57:31;;;;;;;;;;;;;;;;;;4952905;28;114698;-73
2022/04/22 17:59:57;;;;;;;;;;;;;;;;;;4955825;28;123671;-73